Bloomburg, Texas
Current Conditions -  °F | °C
As of 5:53 PM on Sunday 25 Jan 2015 (Local Time) from KTXK Reporting Station
Few Clouds Few Clouds  
Wind Chill: 55°   Ceiling: Unl
Heat Index: 55°   Visibility: 10mi
Dew Point: 33°   Wind: 13mph
Humidity: 43%   Direction: 320°NW
Pressure: 29.98"   Gusts: 24mph
Location:  33.14°N, 94.06°W
Report Text: KTXK 252353Z 32011G21KT 10SM FEW070 13/01 A2998 RMK AO2 SLP149 60000 T01280006 10172 20128 51031
Loading
Personal Weather Stations






























Interactive Weather Map New forecast layout! Learn more

10-Day Weather Forecast

Advertisements
Track Severe Weather on mobile